createdAt,value
2017-11-14T00:00:36.501Z,11.40
2017-11-14T00:03:04.869Z,9.43
2017-11-14T00:05:33.372Z,11.00
2017-11-14T00:08:01.680Z,9.90
2017-11-14T00:10:29.921Z,9.90
2017-11-14T00:12:58.200Z,11.90
2017-11-14T00:15:26.491Z,10.30
2017-11-14T00:17:54.778Z,11.20
2017-11-14T00:20:23.050Z,9.53
2017-11-14T00:22:51.327Z,10.10
2017-11-14T00:25:19.590Z,10.23
2017-11-14T00:27:48.640Z,10.60
2017-11-14T00:30:19.223Z,10.30
2017-11-14T00:32:47.525Z,13.60
2017-11-14T00:35:15.846Z,12.87
2017-11-14T00:37:44.112Z,11.40
2017-11-14T00:40:12.403Z,12.00
2017-11-14T00:42:41.475Z,14.43
2017-11-14T00:45:09.752Z,13.30
2017-11-14T00:47:38.083Z,15.63
2017-11-14T00:50:06.810Z,13.20
2017-11-14T00:52:35.832Z,16.00
2017-11-14T00:55:04.099Z,15.33
2017-11-14T00:57:33.518Z,17.67
2017-11-14T01:00:01.787Z,17.00
2017-11-14T01:02:30.077Z,14.90
2017-11-14T01:04:58.404Z,15.13
2017-11-14T01:07:26.738Z,19.57
2017-11-14T01:09:55.028Z,16.50
2017-11-14T01:12:24.050Z,15.00
2017-11-14T01:14:52.318Z,16.57
2017-11-14T01:17:20.565Z,17.03
2017-11-14T01:19:49.611Z,15.37
2017-11-14T01:22:18.686Z,16.30
2017-11-14T01:24:48.180Z,18.93
2017-11-14T01:27:17.228Z,18.20
2017-11-14T01:29:45.493Z,17.13
2017-11-14T01:32:14.425Z,18.30
2017-11-14T01:34:43.435Z,17.10
2017-11-14T01:37:11.754Z,18.90
2017-11-14T01:39:39.983Z,18.03
2017-11-14T01:42:09.601Z,17.90
2017-11-14T01:44:38.220Z,18.63
2017-11-14T01:47:06.647Z,18.90
2017-11-14T01:49:34.882Z,18.53
2017-11-14T01:52:03.144Z,19.20
2017-11-14T01:54:31.443Z,18.00
2017-11-14T01:56:59.705Z,21.77
2017-11-14T01:59:27.993Z,18.10
2017-11-14T02:01:56.417Z,20.90
2017-11-14T02:04:24.677Z,20.40
2017-11-14T02:06:52.976Z,21.13
2017-11-14T02:09:22.243Z,22.30
2017-11-14T02:11:50.526Z,24.43
2017-11-14T02:14:19.832Z,23.00
2017-11-14T02:16:48.903Z,23.07
2017-11-14T02:19:17.196Z,23.80
2017-11-14T02:21:45.562Z,21.07
2017-11-14T02:24:13.851Z,19.77
2017-11-14T02:27:02.229Z,21.60
2017-11-14T02:29:30.648Z,22.07
2017-11-14T02:31:58.936Z,21.70
2017-11-14T02:34:27.222Z,21.30
2017-11-14T02:36:55.578Z,21.73
2017-11-14T02:39:23.866Z,20.27
2017-11-14T02:41:52.242Z,20.50
2017-11-14T02:44:20.539Z,20.33
2017-11-14T02:46:48.783Z,21.33
2017-11-14T02:49:17.107Z,22.40
2017-11-14T02:51:45.443Z,19.80
2017-11-14T02:54:13.803Z,19.30
2017-11-14T02:56:42.067Z,22.57
2017-11-14T02:59:10.317Z,19.03
2017-11-14T03:01:38.725Z,22.63
2017-11-14T03:04:08.291Z,22.80
2017-11-14T03:06:36.594Z,21.60
2017-11-14T03:09:05.075Z,22.20
2017-11-14T03:11:33.507Z,20.33
2017-11-14T03:14:01.795Z,22.50
2017-11-14T03:16:30.817Z,22.40
2017-11-14T03:18:59.109Z,21.87
2017-11-14T03:21:27.360Z,20.63
2017-11-14T03:23:55.643Z,20.37
2017-11-14T03:26:23.899Z,21.17
2017-11-14T03:28:52.452Z,21.43
2017-11-14T03:31:20.743Z,20.50
2017-11-14T03:33:49.054Z,18.47
2017-11-14T03:36:18.026Z,20.93
2017-11-14T03:38:47.237Z,21.70
2017-11-14T03:41:15.510Z,20.57
2017-11-14T03:43:43.813Z,21.07
2017-11-14T03:46:12.093Z,20.77
2017-11-14T03:48:41.173Z,20.17
2017-11-14T03:51:09.468Z,20.20
2017-11-14T03:53:39.285Z,20.00
2017-11-14T03:56:07.610Z,20.30
2017-11-14T03:58:36.652Z,17.37
2017-11-14T04:01:04.903Z,18.90
2017-11-14T04:03:33.221Z,19.57
2017-11-14T04:06:01.538Z,17.70
2017-11-14T04:08:29.787Z,18.97
2017-11-14T04:10:58.075Z,19.80
2017-11-14T04:13:27.126Z,18.57
2017-11-14T04:15:55.382Z,18.40
2017-11-14T04:18:23.675Z,18.40
2017-11-14T04:20:52.690Z,19.80
2017-11-14T04:23:20.979Z,18.53
2017-11-14T04:25:49.219Z,19.27
2017-11-14T04:28:17.535Z,19.90
2017-11-14T04:30:45.777Z,18.60
2017-11-14T04:33:14.105Z,20.80
2017-11-14T04:35:42.380Z,21.27
2017-11-14T04:38:10.637Z,21.17
2017-11-14T04:40:39.453Z,20.27
2017-11-14T04:43:07.695Z,20.67
2017-11-14T04:45:35.996Z,20.73
2017-11-14T04:48:04.256Z,18.83
2017-11-14T04:50:33.466Z,17.30
2017-11-14T04:53:01.746Z,19.10
2017-11-14T04:55:30.098Z,18.87
2017-11-14T04:57:58.352Z,20.73
2017-11-14T05:00:27.425Z,17.30
2017-11-14T05:02:55.716Z,17.77
2017-11-14T05:05:24.748Z,17.10
2017-11-14T05:07:53.016Z,19.60
2017-11-14T05:10:21.632Z,19.03
2017-11-14T05:12:49.892Z,21.93
2017-11-14T05:15:18.207Z,18.20
2017-11-14T05:17:47.970Z,20.20
2017-11-14T05:20:16.205Z,18.60
2017-11-14T05:22:45.255Z,20.73
2017-11-14T05:25:13.604Z,20.87
2017-11-14T05:27:43.583Z,18.10
2017-11-14T05:30:11.819Z,18.10
2017-11-14T05:32:40.081Z,17.73
2017-11-14T05:35:08.331Z,19.10
2017-11-14T05:37:36.676Z,17.60
2017-11-14T05:40:06.460Z,18.40
2017-11-14T05:42:34.771Z,18.23
2017-11-14T05:45:03.032Z,18.00
2017-11-14T05:47:31.284Z,17.30
2017-11-14T05:49:59.540Z,19.73
2017-11-14T05:52:28.569Z,20.03
2017-11-14T05:54:57.154Z,18.07
2017-11-14T05:57:25.416Z,15.93
2017-11-14T05:59:53.668Z,16.27
2017-11-14T06:02:22.747Z,16.87
2017-11-14T06:04:51.011Z,19.63
2017-11-14T06:07:19.335Z,22.10
2017-11-14T06:09:48.704Z,20.00
2017-11-14T06:12:16.917Z,21.80
2017-11-14T06:14:45.185Z,20.60
2017-11-14T06:17:14.252Z,21.83
2017-11-14T06:19:42.588Z,20.77
2017-11-14T06:22:10.827Z,19.97
2017-11-14T06:24:39.869Z,20.47
2017-11-14T06:27:08.125Z,21.30
2017-11-14T06:29:36.461Z,22.50
2017-11-14T06:32:04.694Z,28.83
2017-11-14T06:34:34.505Z,20.50
2017-11-14T06:37:02.810Z,21.70
2017-11-14T06:39:31.124Z,22.70
2017-11-14T06:42:01.173Z,20.37
2017-11-14T06:44:29.461Z,19.17
2017-11-14T06:46:57.691Z,19.67
2017-11-14T06:49:26.808Z,24.67
2017-11-14T06:51:55.108Z,26.73
2017-11-14T06:54:23.367Z,25.27
2017-11-14T06:56:52.227Z,26.13
2017-11-14T06:59:20.488Z,28.77
2017-11-14T07:01:48.753Z,25.50
2017-11-14T07:04:17.213Z,23.93
2017-11-14T07:06:46.232Z,22.53
2017-11-14T07:09:14.484Z,25.30
2017-11-14T07:11:42.726Z,21.07
2017-11-14T07:14:11.005Z,22.90
2017-11-14T07:16:39.295Z,23.30
2017-11-14T07:19:08.313Z,22.83
2017-11-14T07:21:36.594Z,23.00
2017-11-14T07:24:05.326Z,22.67
2017-11-14T07:26:33.601Z,23.40
2017-11-14T07:29:01.879Z,23.27
2017-11-14T07:31:30.155Z,22.07
2017-11-14T07:33:59.063Z,24.07
2017-11-14T07:36:27.461Z,21.93
2017-11-14T07:38:56.496Z,22.07
2017-11-14T07:41:24.751Z,20.67
2017-11-14T07:43:52.989Z,12.00
2017-11-14T07:46:22.010Z,12.53
2017-11-14T07:48:51.075Z,12.00
2017-11-14T07:51:19.311Z,12.67
2017-11-14T07:53:47.580Z,11.23
2017-11-14T07:56:15.827Z,10.80
2017-11-14T07:58:45.722Z,11.40
2017-11-14T08:01:13.996Z,11.03
2017-11-14T08:03:42.267Z,10.33
2017-11-14T08:06:11.920Z,10.93
2017-11-14T08:08:40.225Z,10.30
2017-11-14T08:11:09.424Z,10.63
2017-11-14T08:13:37.656Z,9.60
2017-11-14T08:16:06.677Z,9.53
2017-11-14T08:18:35.984Z,9.43
2017-11-14T08:21:04.250Z,8.13
2017-11-14T08:23:33.823Z,11.27
2017-11-14T08:26:02.148Z,8.37
2017-11-14T08:28:30.390Z,8.40
2017-11-14T08:30:59.411Z,10.30
2017-11-14T08:33:27.657Z,10.47
2017-11-14T08:35:56.687Z,9.03
2017-11-14T08:38:25.036Z,8.33
2017-11-14T08:40:54.430Z,9.97
2017-11-14T08:43:22.712Z,8.93
2017-11-14T08:45:50.970Z,8.97
2017-11-14T08:48:19.257Z,8.43
2017-11-14T08:50:47.993Z,9.40
2017-11-14T08:53:16.275Z,7.37
2017-11-14T08:55:44.506Z,8.90
2017-11-14T08:58:13.525Z,9.17
2017-11-14T09:00:41.809Z,8.23
2017-11-14T09:03:10.117Z,7.43
2017-11-14T09:05:38.426Z,7.30
2017-11-14T09:08:06.700Z,7.57
2017-11-14T09:10:35.456Z,8.93
2017-11-14T09:13:03.716Z,8.17
2017-11-14T09:15:32.411Z,6.40
2017-11-14T09:18:01.172Z,9.37
2017-11-14T09:20:30.243Z,8.43
2017-11-14T09:22:58.487Z,8.60
2017-11-14T09:25:26.829Z,8.07
2017-11-14T09:27:55.837Z,7.17
2017-11-14T09:30:24.226Z,8.50
2017-11-14T09:32:52.526Z,7.23
2017-11-14T09:35:21.534Z,9.63
2017-11-14T09:37:50.094Z,9.03
2017-11-14T09:40:18.463Z,9.50
2017-11-14T09:42:46.709Z,9.10
2017-11-14T09:45:16.043Z,10.10
2017-11-14T09:47:44.333Z,8.33
2017-11-14T09:50:12.567Z,8.00
2017-11-14T09:52:41.512Z,8.83
2017-11-14T09:55:09.784Z,8.20
2017-11-14T09:57:38.856Z,8.93
2017-11-14T10:00:07.765Z,10.57
2017-11-14T10:02:36.042Z,10.67
2017-11-14T10:05:04.369Z,10.63
2017-11-14T10:07:32.834Z,10.80
2017-11-14T10:10:01.080Z,9.40
2017-11-14T10:12:29.363Z,11.00
2017-11-14T10:14:57.628Z,8.90
2017-11-14T10:17:25.931Z,9.93
2017-11-14T10:19:54.988Z,11.10
2017-11-14T10:22:23.538Z,10.47
2017-11-14T10:24:52.589Z,11.10
2017-11-14T10:27:20.853Z,8.83
2017-11-14T10:29:49.277Z,10.20
2017-11-14T10:32:18.688Z,9.87
2017-11-14T10:34:46.954Z,37.57
2017-11-14T10:37:16.349Z,27.53
2017-11-14T10:39:44.632Z,15.40
2017-11-14T10:42:12.863Z,8.70
2017-11-14T10:44:41.147Z,9.67
2017-11-14T10:47:10.295Z,8.03
2017-11-14T10:49:38.496Z,9.17
2017-11-14T10:52:06.755Z,9.40
2017-11-14T10:54:35.852Z,8.17
2017-11-14T10:57:04.860Z,8.67
2017-11-14T10:59:33.925Z,8.20
2017-11-14T11:02:02.945Z,8.47
2017-11-14T11:04:33.022Z,9.93
2017-11-14T11:07:02.054Z,8.33
2017-11-14T11:09:31.105Z,9.93
2017-11-14T11:11:59.366Z,8.73
2017-11-14T11:14:27.647Z,8.70
2017-11-14T11:16:55.946Z,10.20
2017-11-14T11:19:24.201Z,9.43
2017-11-14T11:21:53.449Z,7.40
2017-11-14T11:24:22.513Z,8.70
2017-11-14T11:26:53.493Z,9.30
2017-11-14T11:29:23.602Z,8.20
2017-11-14T11:31:51.824Z,8.00
2017-11-14T11:34:20.122Z,6.10
2017-11-14T11:36:49.299Z,7.37
2017-11-14T11:39:17.556Z,6.97
2017-11-14T11:41:46.458Z,9.23
2017-11-14T11:44:14.745Z,8.30
2017-11-14T11:46:43.064Z,5.90
2017-11-14T11:49:11.345Z,5.80
2017-11-14T11:51:40.264Z,6.30
2017-11-14T11:54:08.491Z,6.60
2017-11-14T11:56:38.523Z,5.77
2017-11-14T11:59:06.785Z,6.07
2017-11-14T12:01:36.335Z,6.40
2017-11-14T12:04:07.685Z,5.00
2017-11-14T12:06:36.714Z,5.90
2017-11-14T12:09:04.972Z,5.60
2017-11-14T12:11:34.000Z,5.90
2017-11-14T12:14:04.036Z,5.70
2017-11-14T12:16:32.309Z,5.00
2017-11-14T12:19:00.609Z,5.90
2017-11-14T12:21:30.370Z,6.27
2017-11-14T12:23:58.656Z,5.60
2017-11-14T12:26:26.942Z,7.43
2017-11-14T12:28:55.216Z,5.50
2017-11-14T12:31:23.486Z,4.73
2017-11-14T12:33:52.515Z,5.53
2017-11-14T12:36:20.776Z,5.00
2017-11-14T12:38:49.089Z,5.43
2017-11-14T12:41:17.337Z,4.53
2017-11-14T12:43:45.579Z,5.57
2017-11-14T12:46:13.839Z,5.57
2017-11-14T12:48:49.580Z,5.13
2017-11-14T12:51:18.692Z,5.40
2017-11-14T12:53:46.957Z,5.90
2017-11-14T12:56:15.993Z,5.57
2017-11-14T12:58:44.361Z,6.10
2017-11-14T13:01:14.231Z,8.30
2017-11-14T13:03:42.473Z,4.63
2017-11-14T13:06:10.726Z,5.77
2017-11-14T13:08:39.019Z,5.43
2017-11-14T13:11:07.878Z,5.40
2017-11-14T13:13:36.931Z,5.03
2017-11-14T13:16:05.176Z,5.60
2017-11-14T13:18:33.483Z,5.93
2017-11-14T13:21:01.722Z,4.80
2017-11-14T13:23:30.796Z,5.23
2017-11-14T13:25:59.096Z,5.10
2017-11-14T13:28:27.413Z,4.37
2017-11-14T13:30:55.692Z,11.90
2017-11-14T13:33:26.502Z,5.53
2017-11-14T13:35:55.621Z,4.30
2017-11-14T13:38:23.884Z,5.00
2017-11-14T13:40:52.144Z,5.50
2017-11-14T13:43:20.496Z,5.20
2017-11-14T13:45:49.553Z,5.90
2017-11-14T13:48:17.881Z,5.93
2017-11-14T13:50:46.890Z,5.80
2017-11-14T13:53:15.962Z,5.67
2017-11-14T13:55:45.010Z,4.90
2017-11-14T13:58:13.354Z,5.87
2017-11-14T14:00:41.641Z,6.40
2017-11-14T14:03:10.706Z,4.93
2017-11-14T14:05:38.964Z,5.50
2017-11-14T14:08:07.258Z,5.33
2017-11-14T14:10:35.529Z,5.80
2017-11-14T14:13:03.815Z,5.30
2017-11-14T14:15:32.881Z,5.67
2017-11-14T14:18:01.604Z,6.00
2017-11-14T14:20:29.868Z,5.70
2017-11-14T14:22:58.163Z,5.00
2017-11-14T14:25:26.474Z,4.50
2017-11-14T14:27:56.667Z,5.33
2017-11-14T14:30:26.594Z,4.87
2017-11-14T14:32:54.860Z,5.17
2017-11-14T14:35:23.932Z,6.60
2017-11-14T14:37:52.197Z,5.50
2017-11-14T14:40:20.920Z,5.30
2017-11-14T14:42:49.184Z,5.97
2017-11-14T14:45:19.071Z,5.53
2017-11-14T14:47:47.333Z,5.37
2017-11-14T14:50:16.659Z,4.70
2017-11-14T14:52:44.895Z,4.90
2017-11-14T14:55:13.816Z,7.43
2017-11-14T14:57:42.339Z,5.80
2017-11-14T15:00:10.637Z,5.20
2017-11-14T15:02:40.584Z,6.50
2017-11-14T15:05:09.820Z,5.67
2017-11-14T15:07:38.928Z,6.20
2017-11-14T15:10:07.187Z,5.47
2017-11-14T15:12:35.493Z,5.93
2017-11-14T15:15:03.735Z,5.53
2017-11-14T15:17:33.781Z,5.80
2017-11-14T15:20:02.881Z,5.37
2017-11-14T15:22:32.803Z,4.60
2017-11-14T15:25:02.478Z,4.77
2017-11-14T15:27:30.767Z,5.77
2017-11-14T15:29:59.693Z,5.30
2017-11-14T15:32:28.957Z,5.07
2017-11-14T15:34:58.296Z,6.80
2017-11-14T15:37:27.767Z,5.43
2017-11-14T15:39:57.602Z,5.80
2017-11-14T15:42:27.410Z,5.30
2017-11-14T15:44:56.319Z,4.50
2017-11-14T15:47:24.744Z,4.53
2017-11-14T15:49:52.999Z,6.30
2017-11-14T15:52:23.098Z,6.53
2017-11-14T15:54:52.284Z,4.50
2017-11-14T15:57:21.576Z,5.83
2017-11-14T15:59:49.825Z,6.97
2017-11-14T16:02:18.096Z,4.47
2017-11-14T16:04:47.220Z,4.27
2017-11-14T16:07:15.504Z,6.07
2017-11-14T16:09:43.764Z,8.07
2017-11-14T16:12:12.087Z,5.23
2017-11-14T16:14:42.342Z,5.90
2017-11-14T16:17:10.622Z,6.07
2017-11-14T16:19:39.049Z,6.60
2017-11-14T16:22:08.151Z,6.23
2017-11-14T16:24:36.377Z,5.63
2017-11-14T16:27:07.511Z,7.63
2017-11-14T16:29:35.850Z,15.47
2017-11-14T16:32:04.115Z,8.93
2017-11-14T16:34:33.280Z,19.83
2017-11-14T16:37:01.650Z,7.57
2017-11-14T16:39:30.601Z,4.60
2017-11-14T16:42:00.310Z,6.50
2017-11-14T16:44:28.699Z,5.83
2017-11-14T16:46:57.728Z,5.13
2017-11-14T16:49:26.949Z,5.33
2017-11-14T16:51:57.200Z,5.17
2017-11-14T16:54:26.606Z,4.60
2017-11-14T16:56:55.852Z,5.40
2017-11-14T16:59:24.998Z,4.70
2017-11-14T17:01:53.270Z,4.67
2017-11-14T17:04:22.373Z,5.63
2017-11-14T17:06:50.727Z,4.80
2017-11-14T17:09:19.037Z,4.20
2017-11-14T17:11:48.954Z,5.37
2017-11-14T17:14:17.905Z,4.93
2017-11-14T17:16:47.057Z,5.53
2017-11-14T17:19:15.354Z,5.27
2017-11-14T17:21:43.641Z,5.63
2017-11-14T17:24:15.578Z,4.40
2017-11-14T17:26:43.895Z,5.67
2017-11-14T17:29:13.684Z,4.83
2017-11-14T17:31:42.721Z,5.10
2017-11-14T17:34:13.822Z,5.97
2017-11-14T17:36:44.366Z,5.23
2017-11-14T17:39:14.088Z,5.53
2017-11-14T17:41:44.039Z,5.67
2017-11-14T17:44:13.097Z,4.27
2017-11-14T17:46:42.829Z,5.80
2017-11-14T17:49:11.400Z,5.97
2017-11-14T17:51:39.820Z,6.67
2017-11-14T17:54:09.892Z,6.67
2017-11-14T17:56:38.533Z,7.90
2017-11-14T17:59:06.976Z,6.80
2017-11-14T18:01:36.705Z,5.90
2017-11-14T18:04:05.303Z,6.37
2017-11-14T18:06:33.996Z,6.60
2017-11-14T18:09:02.782Z,7.63
2017-11-14T18:11:32.722Z,5.77
2017-11-14T18:14:02.442Z,8.03
2017-11-14T18:16:31.606Z,6.00
2017-11-14T18:19:00.703Z,7.17
2017-11-14T18:21:30.801Z,7.57
2017-11-14T18:24:00.228Z,7.00
2017-11-14T18:26:29.160Z,6.70
2017-11-14T18:28:58.567Z,6.40
2017-11-14T18:31:27.520Z,6.20
2017-11-14T18:33:56.581Z,6.43
2017-11-14T18:36:25.729Z,9.23
2017-11-14T18:38:54.068Z,7.00
2017-11-14T18:41:24.424Z,7.33
2017-11-14T18:43:56.697Z,7.00
2017-11-14T18:46:25.893Z,7.97
2017-11-14T18:48:54.172Z,7.23
2017-11-14T18:51:22.429Z,7.23
2017-11-14T18:53:52.334Z,7.90
2017-11-14T18:56:20.973Z,7.87
2017-11-14T18:58:49.974Z,8.90
2017-11-14T19:01:19.065Z,9.33
2017-11-14T19:03:49.068Z,8.47
2017-11-14T19:06:17.989Z,9.77
2017-11-14T19:08:46.278Z,8.80
2017-11-14T19:11:14.810Z,14.13
2017-11-14T19:13:43.109Z,9.90
2017-11-14T19:16:12.236Z,9.80
2017-11-14T19:18:42.219Z,11.13
2017-11-14T19:21:11.111Z,10.63
2017-11-14T19:23:42.066Z,11.20
2017-11-14T19:26:11.088Z,12.33
2017-11-14T19:28:39.464Z,10.93
2017-11-14T19:31:08.554Z,13.43
2017-11-14T19:33:37.809Z,12.63
2017-11-14T19:36:07.595Z,12.83
2017-11-14T19:38:37.138Z,10.87
2017-11-14T19:41:06.532Z,11.73
2017-11-14T19:43:35.684Z,10.50
2017-11-14T19:46:05.249Z,12.27
2017-11-14T19:48:34.304Z,10.53
2017-11-14T19:51:04.113Z,14.53
2017-11-14T19:53:32.523Z,10.70
2017-11-14T19:56:01.210Z,12.57
2017-11-14T19:58:29.528Z,12.43
2017-11-14T20:00:57.888Z,12.13
2017-11-14T20:03:26.283Z,12.50
2017-11-14T20:05:55.389Z,12.17
2017-11-14T20:08:24.948Z,12.33
2017-11-14T20:10:54.493Z,12.03
2017-11-14T20:13:23.153Z,11.30
2017-11-14T20:15:52.547Z,12.93
2017-11-14T20:18:21.764Z,11.90
2017-11-14T20:20:51.686Z,12.57
2017-11-14T20:23:21.685Z,11.23
2017-11-14T20:25:51.699Z,10.57
2017-11-14T20:28:20.079Z,11.90
2017-11-14T20:30:53.478Z,13.03
2017-11-14T20:33:24.319Z,12.73
2017-11-14T20:35:54.602Z,10.97
2017-11-14T20:38:23.041Z,12.20
2017-11-14T20:40:52.526Z,13.20
2017-11-14T20:43:22.037Z,11.27
2017-11-14T20:45:50.619Z,12.30
2017-11-14T20:48:19.205Z,13.23
2017-11-14T20:50:47.572Z,15.23
2017-11-14T20:53:16.076Z,15.47
2017-11-14T20:55:46.061Z,15.10
2017-11-14T20:58:14.371Z,14.83
2017-11-14T21:00:44.186Z,18.60
2017-11-14T21:03:12.566Z,15.67
2017-11-14T21:05:40.976Z,15.23
2017-11-14T21:08:09.974Z,11.97
2017-11-14T21:10:39.010Z,13.47
2017-11-14T21:13:07.366Z,12.57
2017-11-14T21:15:35.672Z,14.60
2017-11-14T21:18:04.494Z,16.90
2017-11-14T21:20:33.542Z,16.33
2017-11-14T21:23:01.860Z,15.27
2017-11-14T21:25:30.964Z,18.10
2017-11-14T21:27:59.442Z,12.93
2017-11-14T21:30:28.491Z,14.57
2017-11-14T21:32:57.105Z,13.50
2017-11-14T21:35:26.220Z,13.70
2017-11-14T21:37:55.115Z,13.37
2017-11-14T21:40:25.084Z,13.73
2017-11-14T21:42:55.689Z,12.03
2017-11-14T21:45:23.943Z,12.47
2017-11-14T21:47:52.753Z,11.10
2017-11-14T21:50:22.637Z,12.00
2017-11-14T21:52:52.187Z,12.93
2017-11-14T21:55:21.306Z,12.17
2017-11-14T21:57:50.441Z,13.50
2017-11-14T22:00:18.874Z,12.40
2017-11-14T22:02:47.268Z,13.07
2017-11-14T22:05:15.579Z,11.83
2017-11-14T22:07:44.436Z,12.27
2017-11-14T22:10:12.686Z,11.10
2017-11-14T22:12:40.966Z,10.90
2017-11-14T22:15:09.278Z,13.63
2017-11-14T22:17:38.519Z,13.03
2017-11-14T22:20:07.668Z,11.80
2017-11-14T22:22:35.967Z,11.27
2017-11-14T22:25:04.232Z,10.23
2017-11-14T22:27:32.507Z,11.27
2017-11-14T22:30:01.580Z,11.00
2017-11-14T22:32:29.852Z,10.63
2017-11-14T22:34:58.201Z,12.07
2017-11-14T22:37:27.224Z,9.90
2017-11-14T22:39:55.493Z,12.40
2017-11-14T22:42:24.154Z,10.27
2017-11-14T22:44:52.651Z,10.30
2017-11-14T22:47:22.596Z,11.13
2017-11-14T22:49:50.872Z,10.10
2017-11-14T22:52:20.098Z,9.87
2017-11-14T22:54:48.393Z,9.53
2017-11-14T22:57:17.775Z,8.93
2017-11-14T22:59:46.040Z,9.17
2017-11-14T23:02:15.191Z,10.00
2017-11-14T23:04:44.320Z,7.90
2017-11-14T23:07:13.518Z,8.53
2017-11-14T23:09:41.799Z,7.97
2017-11-14T23:12:11.946Z,9.20
2017-11-14T23:14:40.268Z,10.10
2017-11-14T23:17:09.322Z,9.17
2017-11-14T23:19:37.630Z,10.70
2017-11-14T23:22:05.866Z,11.27
2017-11-14T23:24:34.547Z,11.50
2017-11-14T23:27:05.271Z,10.60
2017-11-14T23:29:34.110Z,9.87
2017-11-14T23:32:03.243Z,10.40
2017-11-14T23:34:32.554Z,9.47
2017-11-14T23:37:04.851Z,10.00
2017-11-14T23:39:33.905Z,10.87
2017-11-14T23:42:03.618Z,9.27
2017-11-14T23:44:32.837Z,11.10
2017-11-14T23:47:01.871Z,10.77
2017-11-14T23:49:32.688Z,10.50
2017-11-14T23:52:00.976Z,10.83
2017-11-14T23:54:30.550Z,10.43
2017-11-14T23:56:59.906Z,11.23
2017-11-14T23:59:28.135Z,12.90
